Time;durP1;ratioP1;P1;durP2;ratioP2;P2;SDS_P1;SDS_P2;PMS_P1;PMS_P2;Temp;Humidity;BMP_temperature;BMP_pressure;BME280_temperature;BME280_humidity;BME280_pressure;Samples;Min_cycle;Max_cycle;Signal;HPM_P1;HPM_P2
2022/08/21 00:01:42;;;;;;;7.53;6.80;;;18.90;70.70;;;;;;5068659;28;20435;-76
2022/08/21 00:04:10;;;;;;;8.38;7.28;;;18.80;71.20;;;;;;5069949;28;21016;-74
2022/08/21 00:06:38;;;;;;;8.57;7.68;;;18.90;70.80;;;;;;5067267;28;20449;-73
2022/08/21 00:09:08;;;;;;;8.30;7.60;;;18.80;71.10;;;;;;5063953;28;20519;-74
2022/08/21 00:11:36;;;;;;;8.95;8.15;;;18.80;71.40;;;;;;5060978;28;20433;-74
2022/08/21 00:14:05;;;;;;;8.45;7.85;;;18.80;71.90;;;;;;5070143;28;20432;-74
2022/08/21 00:16:33;;;;;;;9.10;8.20;;;18.70;72.10;;;;;;5067040;28;20523;-74
2022/08/21 00:19:01;;;;;;;10.02;8.98;;;18.70;71.80;;;;;;5070216;28;20613;-74
2022/08/21 00:21:28;;;;;;;10.45;9.38;;;18.70;72.70;;;;;;5070351;28;20427;-74
2022/08/21 00:23:55;;;;;;;10.07;9.05;;;18.60;71.50;;;;;;5065726;28;20446;-74
2022/08/21 00:26:22;;;;;;;11.60;9.53;;;18.60;72.00;;;;;;5068113;28;20428;-74
2022/08/21 00:28:49;;;;;;;11.30;9.73;;;18.50;71.20;;;;;;5067588;28;20435;-75
2022/08/21 00:31:16;;;;;;;10.57;8.90;;;18.50;71.80;;;;;;5062427;28;20488;-74
2022/08/21 00:33:43;;;;;;;9.95;9.15;;;18.50;71.40;;;;;;5061967;28;20433;-75
2022/08/21 00:36:11;;;;;;;11.05;8.82;;;18.40;72.10;;;;;;5067485;28;20427;-74
2022/08/21 00:38:38;;;;;;;11.50;9.40;;;18.40;72.50;;;;;;5064825;28;20431;-74
2022/08/21 00:41:08;;;;;;;10.40;9.30;;;18.40;72.80;;;;;;5065946;28;20806;-74
2022/08/21 00:43:38;;;;;;;10.23;9.05;;;18.40;73.20;;;;;;5056929;28;20592;-73
2022/08/21 00:46:07;;;;;;;10.77;9.68;;;18.30;73.20;;;;;;5064860;28;20433;-74
2022/08/21 00:48:34;;;;;;;10.43;9.53;;;18.30;73.40;;;;;;5069085;28;20459;-74
2022/08/21 00:51:05;;;;;;;11.40;10.30;;;18.30;73.20;;;;;;5066751;28;20446;-73
2022/08/21 00:53:36;;;;;;;12.05;9.32;;;18.30;74.50;;;;;;5086210;28;20474;-73
2022/08/21 00:56:05;;;;;;;10.07;8.15;;;18.30;74.50;;;;;;5081674;28;20504;-75
2022/08/21 00:58:35;;;;;;;9.48;8.35;;;18.20;73.60;;;;;;5088915;28;20408;-73
2022/08/21 01:01:04;;;;;;;9.30;8.30;;;18.20;73.60;;;;;;5086145;28;20476;-73
2022/08/21 01:03:31;;;;;;;10.38;8.07;;;18.10;73.40;;;;;;5078567;28;20428;-73
2022/08/21 01:05:58;;;;;;;9.00;8.10;;;18.20;73.60;;;;;;5080561;28;20484;-74
2022/08/21 01:08:25;;;;;;;9.43;8.00;;;18.10;73.60;;;;;;5075645;28;20421;-73
2022/08/21 01:10:55;;;;;;;8.35;7.38;;;18.00;74.10;;;;;;5082210;28;20434;-73
2022/08/21 01:13:24;;;;;;;8.80;8.00;;;18.10;73.80;;;;;;5077410;28;20433;-74
2022/08/21 01:15:53;;;;;;;9.30;8.40;;;18.00;75.00;;;;;;5075681;28;20424;-75
2022/08/21 01:18:21;;;;;;;8.80;8.00;;;17.90;74.90;;;;;;5074452;28;20446;-73
2022/08/21 01:21:01;;;;;;;10.27;7.70;;;17.90;74.20;;;;;;5073670;28;20940;-74
2022/08/21 01:23:28;;;;;;;8.65;7.75;;;17.90;74.70;;;;;;5063180;28;20594;-73
2022/08/21 01:25:55;;;;;;;8.63;7.80;;;17.80;75.10;;;;;;5067071;28;20431;-74
2022/08/21 01:28:24;;;;;;;8.90;8.00;;;17.80;76.60;;;;;;5065085;28;20792;-73
2022/08/21 01:30:53;;;;;;;9.20;8.30;;;17.70;76.30;;;;;;5061436;28;20470;-74
2022/08/21 01:33:22;;;;;;;8.88;7.97;;;17.70;76.60;;;;;;5067699;28;20431;-74
2022/08/21 01:35:49;;;;;;;9.15;8.07;;;17.70;75.70;;;;;;5066210;28;20443;-74
2022/08/21 01:38:17;;;;;;;8.55;7.85;;;17.70;75.60;;;;;;5067045;28;20430;-74
2022/08/21 01:40:44;;;;;;;9.00;8.10;;;17.70;75.30;;;;;;5054836;28;20789;-74
2022/08/21 01:43:11;;;;;;;9.57;8.05;;;17.60;75.80;;;;;;5060686;28;20466;-74
2022/08/21 01:45:38;;;;;;;8.45;7.65;;;17.50;76.00;;;;;;5064349;28;20427;-74
2022/08/21 01:48:05;;;;;;;9.10;8.20;;;17.40;76.40;;;;;;5066449;28;20438;-74
2022/08/21 01:50:33;;;;;;;8.97;8.07;;;17.40;77.00;;;;;;5066933;28;20522;-76
2022/08/21 01:53:00;;;;;;;10.05;8.52;;;17.40;77.50;;;;;;5066506;28;20463;-74
2022/08/21 01:55:28;;;;;;;10.20;8.80;;;17.30;77.40;;;;;;5066662;28;20517;-74
2022/08/21 01:57:55;;;;;;;9.60;8.70;;;17.40;78.10;;;;;;5058645;28;20435;-73
2022/08/21 02:00:23;;;;;;;9.73;8.73;;;17.30;78.20;;;;;;5065603;28;20438;-73
2022/08/21 02:02:51;;;;;;;9.57;8.57;;;17.30;78.90;;;;;;5057947;28;20810;-76
2022/08/21 02:05:18;;;;;;;9.35;8.43;;;17.30;78.10;;;;;;5064618;28;20465;-74
2022/08/21 02:07:47;;;;;;;9.90;9.05;;;17.20;78.60;;;;;;5061628;28;20454;-75
2022/08/21 02:10:16;;;;;;;9.70;8.73;;;17.20;78.40;;;;;;5057649;28;20431;-74
2022/08/21 02:12:45;;;;;;;11.03;9.40;;;17.20;78.10;;;;;;5062579;28;20439;-74
2022/08/21 02:15:12;;;;;;;10.25;9.20;;;17.20;78.20;;;;;;5058281;28;20443;-75
2022/08/21 02:17:41;;;;;;;10.40;9.30;;;17.20;77.90;;;;;;5062925;28;20935;-73
2022/08/21 02:20:10;;;;;;;10.07;9.20;;;17.10;77.60;;;;;;5062197;28;20480;-73
2022/08/21 02:22:37;;;;;;;10.60;9.15;;;17.10;77.80;;;;;;5063267;28;20419;-73
2022/08/21 02:25:04;;;;;;;10.30;9.30;;;17.10;78.60;;;;;;5061130;28;20437;-73
2022/08/21 02:27:40;;;;;;;12.45;9.57;;;17.10;78.20;;;;;;5067217;28;20434;-75
2022/08/21 02:30:10;;;;;;;10.57;9.57;;;17.10;78.00;;;;;;5055897;28;20917;-75
2022/08/21 02:32:37;;;;;;;10.50;9.50;;;17.00;78.10;;;;;;5066077;28;20495;-73
2022/08/21 02:35:04;;;;;;;12.57;11.37;;;17.00;78.40;;;;;;5065865;28;20817;-73
2022/08/21 02:37:31;;;;;;;13.75;12.45;;;17.00;79.40;;;;;;5065878;28;20432;-74
2022/08/21 02:39:59;;;;;;;14.30;12.90;;;17.00;80.10;;;;;;5063931;28;20431;-76
2022/08/21 02:42:26;;;;;;;15.53;14.13;;;17.00;81.70;;;;;;5059139;28;20441;-75
2022/08/21 02:44:53;;;;;;;14.90;13.65;;;16.90;82.20;;;;;;5057299;28;20471;-74
2022/08/21 02:47:21;;;;;;;15.50;14.13;;;16.90;82.70;;;;;;5065153;28;20801;-74
2022/08/21 02:49:48;;;;;;;16.35;15.05;;;16.90;82.70;;;;;;5062765;28;20438;-74
2022/08/21 02:52:14;;;;;;;17.65;15.85;;;16.80;83.10;;;;;;5062629;28;20438;-74
2022/08/21 02:54:41;;;;;;;15.80;14.40;;;16.80;83.20;;;;;;5059299;28;20448;-73
2022/08/21 02:57:09;;;;;;;16.65;15.15;;;16.80;83.50;;;;;;5056591;28;20439;-73
2022/08/21 02:59:36;;;;;;;17.45;15.95;;;16.70;83.70;;;;;;5062957;28;20442;-73
2022/08/21 03:02:02;;;;;;;16.75;15.35;;;16.70;83.30;;;;;;5065804;28;20427;-73
2022/08/21 03:04:31;;;;;;;17.52;15.82;;;16.70;83.20;;;;;;5060988;28;20451;-73
2022/08/21 03:06:58;;;;;;;18.40;16.80;;;16.70;83.00;;;;;;5060395;28;20776;-73
2022/08/21 03:09:25;;;;;;;17.15;15.65;;;16.60;82.80;;;;;;5064819;28;20434;-74
2022/08/21 03:11:52;;;;;;;18.27;16.63;;;16.60;82.70;;;;;;5065580;28;20956;-74
2022/08/21 03:14:19;;;;;;;17.23;15.63;;;16.60;82.80;;;;;;5064691;28;20949;-74
2022/08/21 03:16:46;;;;;;;17.10;15.70;;;16.60;83.00;;;;;;5064160;28;20463;-74
2022/08/21 03:19:13;;;;;;;16.48;15.05;;;16.50;83.30;;;;;;5069582;28;20518;-74
2022/08/21 03:21:41;;;;;;;15.50;14.20;;;16.50;83.30;;;;;;5068051;28;20521;-73
2022/08/21 03:24:08;;;;;;;14.73;13.50;;;16.50;83.50;;;;;;5060503;28;20518;-74
2022/08/21 03:26:35;;;;;;;13.75;12.50;;;16.40;83.50;;;;;;5060911;28;20433;-75
2022/08/21 03:29:02;;;;;;;13.75;12.50;;;16.40;83.20;;;;;;5068515;28;20514;-74
2022/08/21 03:31:31;;;;;;;13.25;11.85;;;16.40;83.50;;;;;;5068537;28;21503;-74
2022/08/21 03:33:58;;;;;;;13.20;11.90;;;16.40;83.60;;;;;;5063404;28;20962;-75
2022/08/21 03:36:25;;;;;;;13.27;11.98;;;16.40;83.10;;;;;;5067895;28;20431;-72
2022/08/21 03:38:54;;;;;;;12.40;11.30;;;16.40;83.00;;;;;;5067772;28;20438;-75
2022/08/21 03:41:21;;;;;;;12.03;10.83;;;16.30;82.70;;;;;;5070672;28;20438;-74
2022/08/21 03:43:49;;;;;;;12.50;11.20;;;16.30;81.90;;;;;;5065665;28;20518;-73
2022/08/21 03:46:15;;;;;;;11.63;10.48;;;16.30;82.00;;;;;;5062329;28;20427;-73
2022/08/21 03:48:42;;;;;;;10.98;9.75;;;16.30;81.90;;;;;;5067190;28;20438;-74
2022/08/21 03:51:10;;;;;;;10.02;9.13;;;16.20;81.80;;;;;;5066596;28;20439;-74
2022/08/21 03:53:37;;;;;;;11.07;9.10;;;16.20;82.40;;;;;;5063362;28;20431;-74
2022/08/21 03:56:06;;;;;;;10.13;9.20;;;16.10;82.20;;;;;;5064360;28;20427;-74
2022/08/21 03:58:33;;;;;;;10.43;9.18;;;16.20;82.10;;;;;;5078779;28;20431;-73
2022/08/21 04:01:01;;;;;;;10.25;9.00;;;16.10;81.60;;;;;;5078578;28;20440;-74
2022/08/21 04:03:29;;;;;;;10.27;8.77;;;16.10;82.60;;;;;;5083377;28;20423;-74
2022/08/21 04:05:56;;;;;;;10.48;9.18;;;16.10;82.10;;;;;;5081674;28;20499;-73
2022/08/21 04:08:22;;;;;;;9.65;8.73;;;16.10;81.60;;;;;;5082312;28;20450;-72
2022/08/21 04:10:53;;;;;;;10.07;9.00;;;16.10;81.20;;;;;;5084874;28;20424;-73
2022/08/21 04:13:22;;;;;;;10.73;9.90;;;16.10;81.70;;;;;;5071442;28;20458;-73
2022/08/21 04:15:50;;;;;;;9.48;8.68;;;16.10;81.40;;;;;;5067266;28;20483;-73
2022/08/21 04:18:17;;;;;;;10.50;9.40;;;16.00;81.40;;;;;;5075375;28;20488;-74
2022/08/21 04:20:47;;;;;;;10.75;9.75;;;16.00;81.10;;;;;;5066880;28;20435;-72
2022/08/21 04:23:13;;;;;;;9.75;8.85;;;16.00;80.90;;;;;;5060990;28;20429;-73
2022/08/21 04:25:40;;;;;;;10.50;9.50;;;16.00;81.30;;;;;;5060224;28;20431;-75
2022/08/21 04:28:07;;;;;;;10.32;9.40;;;16.00;81.40;;;;;;5058850;28;20427;-73
2022/08/21 04:30:35;;;;;;;10.10;9.10;;;15.90;81.60;;;;;;5069201;28;20435;-72
2022/08/21 04:33:02;;;;;;;9.93;8.93;;;15.90;81.70;;;;;;5062303;28;20465;-73
2022/08/21 04:35:29;;;;;;;10.93;8.70;;;15.90;81.60;;;;;;5068701;28;20471;-72
2022/08/21 04:37:56;;;;;;;9.18;8.38;;;15.80;81.60;;;;;;5066409;28;20442;-73
2022/08/21 04:40:26;;;;;;;9.65;8.65;;;15.80;81.80;;;;;;5067421;28;21033;-73
2022/08/21 04:42:54;;;;;;;9.63;8.60;;;15.80;82.00;;;;;;5071513;28;20437;-72
2022/08/21 04:45:24;;;;;;;10.18;8.57;;;15.70;82.20;;;;;;5055540;28;20433;-73
2022/08/21 04:47:54;;;;;;;9.63;8.40;;;15.70;82.70;;;;;;5052483;28;20421;-73
2022/08/21 04:50:22;;;;;;;10.23;8.90;;;15.70;82.60;;;;;;5051983;28;20796;-73
2022/08/21 04:52:49;;;;;;;9.45;8.45;;;15.70;82.50;;;;;;5061554;28;20435;-73
2022/08/21 04:55:17;;;;;;;9.88;8.93;;;15.70;83.10;;;;;;5055053;28;20441;-73
2022/08/21 04:57:44;;;;;;;10.85;8.70;;;15.80;81.90;;;;;;5052260;28;20471;-74
2022/08/21 05:00:13;;;;;;;9.13;8.32;;;15.80;81.60;;;;;;5054326;28;20445;-74
2022/08/21 05:02:41;;;;;;;10.20;9.13;;;15.70;82.30;;;;;;5064211;28;20809;-74
2022/08/21 05:05:09;;;;;;;9.65;8.77;;;15.70;81.90;;;;;;5055928;28;20435;-74
2022/08/21 05:07:37;;;;;;;9.50;8.60;;;15.70;81.70;;;;;;5052049;28;20427;-72
2022/08/21 05:10:05;;;;;;;8.82;8.02;;;15.70;81.80;;;;;;5056026;28;20429;-75
2022/08/21 05:12:33;;;;;;;9.30;8.40;;;15.70;82.30;;;;;;5056800;28;20440;-75
2022/08/21 05:14:59;;;;;;;8.95;8.15;;;15.70;82.40;;;;;;5052850;28;20829;-73
2022/08/21 05:17:26;;;;;;;9.77;8.77;;;15.70;82.90;;;;;;5058384;28;20437;-75
2022/08/21 05:19:54;;;;;;;9.68;8.68;;;15.80;83.00;;;;;;5052812;28;20441;-73
2022/08/21 05:22:24;;;;;;;10.00;9.10;;;15.80;82.60;;;;;;5051503;28;20437;-73
2022/08/21 05:24:51;;;;;;;9.73;8.93;;;15.80;81.70;;;;;;5057108;28;20435;-74
2022/08/21 05:27:18;;;;;;;10.05;9.05;;;15.80;81.90;;;;;;5055262;28;20421;-73
2022/08/21 05:29:44;;;;;;;10.07;9.07;;;15.80;81.90;;;;;;5054562;28;20445;-73
2022/08/21 05:32:13;;;;;;;9.50;8.40;;;15.80;81.90;;;;;;5053290;28;20463;-73
2022/08/21 05:34:40;;;;;;;9.43;8.73;;;15.80;81.90;;;;;;5056961;28;20816;-72
2022/08/21 05:37:07;;;;;;;10.18;9.30;;;15.80;81.90;;;;;;5049694;28;20429;-73
2022/08/21 05:39:35;;;;;;;10.73;8.65;;;15.90;81.50;;;;;;5055238;28;20434;-74
2022/08/21 05:42:02;;;;;;;9.90;9.10;;;15.90;81.90;;;;;;5055022;28;21020;-73
2022/08/21 05:44:29;;;;;;;10.48;9.48;;;15.90;81.50;;;;;;5058386;28;20808;-74
2022/08/21 05:46:55;;;;;;;9.45;8.50;;;15.90;80.80;;;;;;5057202;28;21786;-74
2022/08/21 05:49:22;;;;;;;12.02;9.18;;;15.90;81.00;;;;;;5055464;28;20434;-74
2022/08/21 05:51:49;;;;;;;9.52;8.73;;;16.00;80.90;;;;;;5061922;28;20436;-74
2022/08/21 05:54:16;;;;;;;9.60;8.60;;;16.00;80.40;;;;;;5071384;28;20788;-73
2022/08/21 05:56:44;;;;;;;10.38;9.30;;;16.10;80.20;;;;;;5068413;28;20429;-75
2022/08/21 05:59:12;;;;;;;9.93;8.93;;;16.10;79.90;;;;;;5063391;28;20897;-76
2022/08/21 06:01:40;;;;;;;9.50;8.50;;;16.10;80.10;;;;;;5058655;28;20443;-75
2022/08/21 06:04:07;;;;;;;9.50;8.60;;;16.20;79.80;;;;;;5073660;28;20431;-73
2022/08/21 06:06:35;;;;;;;9.50;8.60;;;16.20;80.30;;;;;;5085310;28;20440;-72
2022/08/21 06:09:02;;;;;;;9.40;8.50;;;16.20;79.60;;;;;;5083686;28;20432;-72
2022/08/21 06:11:29;;;;;;;10.00;9.00;;;16.30;78.60;;;;;;5080566;28;20425;-73
2022/08/21 06:13:58;;;;;;;9.00;8.10;;;16.30;77.90;;;;;;5066871;28;20433;-73
2022/08/21 06:16:27;;;;;;;9.30;8.38;;;16.30;77.80;;;;;;5065623;28;20431;-74
2022/08/21 06:18:53;;;;;;;8.90;8.00;;;16.40;77.10;;;;;;5052845;23;20454;-70
2022/08/21 06:21:20;;;;;;;7.82;7.13;;;16.50;77.50;;;;;;5024012;28;20923;-71
2022/08/21 06:23:47;;;;;;;9.07;7.30;;;16.50;77.10;;;;;;5023956;28;20433;-70
2022/08/21 06:26:15;;;;;;;7.88;7.07;;;16.60;76.80;;;;;;5021832;28;20439;-69
2022/08/21 06:28:43;;;;;;;8.43;7.03;;;16.70;75.00;;;;;;5022412;28;20465;-71
2022/08/21 06:31:17;;;;;;;8.10;6.90;;;16.80;74.80;;;;;;5015053;28;20455;-70
2022/08/21 06:33:44;;;;;;;7.07;6.45;;;16.90;74.70;;;;;;5014725;28;20456;-70
2022/08/21 06:36:11;;;;;;;7.27;6.57;;;16.90;74.40;;;;;;5019688;28;20539;-71
2022/08/21 06:38:39;;;;;;;7.03;6.30;;;17.00;73.40;;;;;;5021274;28;20449;-71
2022/08/21 06:41:06;;;;;;;7.50;6.78;;;17.10;73.40;;;;;;5017061;28;20515;-70
2022/08/21 06:43:33;;;;;;;7.65;6.70;;;17.20;71.80;;;;;;5025028;28;20813;-71
2022/08/21 06:46:00;;;;;;;6.00;5.40;;;17.30;71.80;;;;;;5020573;28;20443;-71
2022/08/21 06:48:29;;;;;;;7.30;5.70;;;17.40;71.00;;;;;;5011950;28;20427;-70
2022/08/21 06:50:56;;;;;;;7.05;6.30;;;17.40;71.00;;;;;;5013468;28;20451;-70
2022/08/21 06:53:23;;;;;;;7.57;5.90;;;17.50;71.40;;;;;;5018360;28;21040;-70
2022/08/21 06:55:50;;;;;;;8.80;6.20;;;17.60;70.40;;;;;;5018968;28;20433;-71
2022/08/21 06:58:19;;;;;;;6.50;5.90;;;17.70;70.50;;;;;;5015246;28;20549;-70
2022/08/21 07:00:48;;;;;;;6.53;5.88;;;17.80;70.00;;;;;;5015565;28;20439;-71
2022/08/21 07:03:23;;;;;;;7.00;5.93;;;18.00;69.50;;;;;;5012884;28;20856;-70
2022/08/21 07:05:52;;;;;;;5.78;4.90;;;18.10;68.20;;;;;;5015831;28;20435;-71
2022/08/21 07:08:19;;;;;;;6.40;4.72;;;18.20;67.60;;;;;;5015655;28;20435;-71
2022/08/21 07:10:47;;;;;;;5.30;4.70;;;18.30;67.90;;;;;;5019271;28;20457;-70
2022/08/21 07:13:15;;;;;;;7.13;5.00;;;18.60;67.10;;;;;;5010495;28;20582;-70
2022/08/21 07:15:42;;;;;;;6.10;4.40;;;18.80;66.00;;;;;;5014595;28;20722;-71
2022/08/21 07:18:09;;;;;;;5.63;3.95;;;18.90;64.30;;;;;;5017091;28;21194;-70
2022/08/21 07:20:36;;;;;;;5.35;3.78;;;18.90;64.20;;;;;;5016988;28;20537;-71
2022/08/21 07:23:08;;;;;;;4.80;3.60;;;19.00;63.50;;;;;;5018061;28;20439;-70
2022/08/21 07:25:35;;;;;;;5.60;3.80;;;19.10;63.90;;;;;;5007126;28;20933;-71
2022/08/21 07:28:02;;;;;;;4.30;3.10;;;19.30;63.20;;;;;;5014119;28;20427;-70
2022/08/21 07:30:29;;;;;;;4.82;3.13;;;19.50;62.50;;;;;;5015994;28;20914;-71
2022/08/21 07:32:57;;;;;;;4.00;3.00;;;19.80;62.10;;;;;;5010748;28;20441;-71
2022/08/21 07:35:24;;;;;;;6.70;3.20;;;20.10;61.90;;;;;;5013264;28;20981;-71
2022/08/21 07:37:51;;;;;;;3.42;2.90;;;20.30;59.30;;;;;;5013566;28;20902;-70
2022/08/21 07:40:19;;;;;;;6.15;3.17;;;20.50;58.80;;;;;;5013937;28;20454;-71
2022/08/21 07:42:49;;;;;;;6.70;3.00;;;20.60;58.10;;;;;;5015390;28;20453;-71
2022/08/21 07:45:17;;;;;;;4.32;2.75;;;20.90;57.30;;;;;;5019131;28;20449;-71
2022/08/21 07:47:44;;;;;;;3.58;2.47;;;20.90;55.70;;;;;;5017655;28;20433;-70
2022/08/21 07:50:12;;;;;;;3.78;2.75;;;20.60;57.10;;;;;;5020975;28;20516;-71
2022/08/21 07:52:39;;;;;;;5.20;2.70;;;20.70;57.70;;;;;;5022752;28;20431;-71
2022/08/21 07:55:07;;;;;;;4.80;2.40;;;20.90;57.80;;;;;;5008188;28;20482;-70
2022/08/21 07:57:35;;;;;;;3.67;2.28;;;20.90;55.20;;;;;;5016509;28;20484;-71
2022/08/21 08:00:03;;;;;;;3.17;2.45;;;21.00;56.30;;;;;;5011050;28;21027;-71
2022/08/21 08:02:31;;;;;;;3.80;2.20;;;21.20;55.50;;;;;;5015044;28;20515;-70
2022/08/21 08:05:00;;;;;;;6.30;2.67;;;21.20;55.10;;;;;;5014736;28;20895;-70
2022/08/21 08:07:27;;;;;;;3.22;2.08;;;21.20;55.20;;;;;;5022716;28;20916;-71
2022/08/21 08:09:54;;;;;;;6.50;2.53;;;21.40;54.80;;;;;;5019416;28;20439;-71
2022/08/21 08:12:21;;;;;;;5.67;2.60;;;21.60;53.90;;;;;;5025539;28;20440;-72
2022/08/21 08:14:49;;;;;;;5.88;2.30;;;21.60;53.40;;;;;;5021911;28;20902;-71
2022/08/21 08:17:16;;;;;;;3.38;1.92;;;21.60;52.80;;;;;;5021531;28;20441;-71
2022/08/21 08:19:43;;;;;;;4.47;2.05;;;21.60;54.80;;;;;;5015877;28;20440;-71
2022/08/21 08:22:17;;;;;;;3.30;2.13;;;21.90;51.60;;;;;;5019658;28;20430;-71
2022/08/21 08:24:44;;;;;;;4.32;2.00;;;22.00;51.90;;;;;;5019651;28;20447;-71
2022/08/21 08:27:10;;;;;;;5.07;2.50;;;22.30;52.00;;;;;;5019496;28;20454;-75
2022/08/21 08:29:37;;;;;;;3.40;1.90;;;22.60;50.10;;;;;;5019342;28;20440;-75
2022/08/21 08:32:07;;;;;;;3.95;2.05;;;22.80;49.90;;;;;;5009167;28;20734;-75
2022/08/21 08:34:34;;;;;;;3.15;1.90;;;23.00;50.20;;;;;;5014575;28;20902;-75
2022/08/21 08:37:01;;;;;;;3.25;1.70;;;23.30;48.10;;;;;;5010522;28;20497;-76
2022/08/21 08:39:28;;;;;;;5.40;2.20;;;23.50;48.10;;;;;;5015569;28;20438;-73
2022/08/21 08:42:00;;;;;;;5.55;2.35;;;23.60;47.70;;;;;;5014220;28;20429;-72
2022/08/21 08:44:27;;;;;;;4.28;2.10;;;23.80;47.00;;;;;;5017638;28;20439;-74
2022/08/21 08:46:54;;;;;;;4.50;2.08;;;24.00;47.00;;;;;;5014198;28;20955;-74
2022/08/21 08:49:30;;;;;;;5.07;1.70;;;24.20;47.40;;;;;;5015668;28;20444;-74
2022/08/21 08:52:02;;;;;;;3.10;1.65;;;24.40;45.40;;;;;;5015176;28;20435;-74
2022/08/21 08:54:35;;;;;;;4.40;2.17;;;24.60;45.80;;;;;;5015933;28;20953;-74
2022/08/21 08:57:05;;;;;;;3.65;1.50;;;24.60;44.60;;;;;;5012213;28;20497;-72
2022/08/21 08:59:40;;;;;;;4.90;1.92;;;24.60;44.10;;;;;;5009568;28;20518;-74
2022/08/21 09:02:07;;;;;;;3.60;1.83;;;24.60;43.10;;;;;;5014763;28;20535;-74
2022/08/21 09:04:35;;;;;;;3.37;1.77;;;24.30;43.90;;;;;;5012973;28;21030;-74
2022/08/21 09:07:13;;;;;;;6.32;1.90;;;24.20;45.40;;;;;;5013953;28;20435;-73
2022/08/21 09:09:52;;;;;;;5.05;1.80;;;24.50;44.10;;;;;;5013080;28;20827;-74
2022/08/21 09:12:33;;;;;;;4.60;1.90;;;24.60;44.30;;;;;;5012413;28;20867;-74
2022/08/21 09:15:07;;;;;;;4.50;1.85;;;24.90;43.70;;;;;;5013674;28;20466;-74
2022/08/21 09:17:43;;;;;;;5.45;2.30;;;25.10;43.50;;;;;;5016507;28;20432;-74
2022/08/21 09:20:19;;;;;;;3.40;1.88;;;25.10;42.70;;;;;;5009124;28;20475;-74
2022/08/21 09:23:01;;;;;;;5.90;1.70;;;25.00;43.10;;;;;;5011233;28;21088;-74
2022/08/21 09:25:31;;;;;;;4.22;1.80;;;24.90;42.70;;;;;;5014306;28;20589;-75
2022/08/21 09:27:58;;;;;;;3.83;1.80;;;24.80;43.40;;;;;;5016239;28;20435;-75
2022/08/21 09:30:28;;;;;;;4.70;1.83;;;24.90;42.20;;;;;;5013610;28;20529;-72
2022/08/21 09:32:56;;;;;;;3.30;2.07;;;25.10;43.60;;;;;;5011921;28;21068;-73
2022/08/21 09:35:25;;;;;;;3.70;1.67;;;25.40;42.80;;;;;;5014173;28;20559;-73
2022/08/21 09:37:54;;;;;;;4.38;1.60;;;25.70;42.60;;;;;;5011827;28;20435;-67
2022/08/21 09:40:38;;;;;;;3.75;1.40;;;26.00;40.70;;;;;;5013666;28;20451;-69
2022/08/21 09:43:07;;;;;;;4.20;1.60;;;26.00;40.40;;;;;;5014313;28;20999;-69
2022/08/21 09:45:35;;;;;;;3.60;1.67;;;26.20;40.50;;;;;;5009505;28;20511;-70
2022/08/21 09:48:13;;;;;;;6.13;2.13;;;26.40;39.80;;;;;;5011688;28;20456;-70
2022/08/21 09:50:47;;;;;;;4.90;2.05;;;25.90;40.80;;;;;;5011491;28;20472;-69
2022/08/21 09:53:19;;;;;;;3.67;1.98;;;25.80;41.30;;;;;;5012515;28;20762;-69
2022/08/21 09:58:39;;;;;;;5.80;2.00;;;25.80;41.80;;;;;;5012803;28;20576;-70
2022/08/21 10:01:07;;;;;;;2.90;1.45;;;26.00;41.70;;;;;;5013045;28;20514;-68
2022/08/21 10:03:34;;;;;;;4.00;1.45;;;26.40;41.60;;;;;;5011265;28;21018;-69
2022/08/21 10:06:08;;;;;;;5.20;1.58;;;26.60;40.60;;;;;;5016785;28;20501;-69
2022/08/21 10:08:36;;;;;;;4.80;1.70;;;26.80;38.90;;;;;;5020401;28;20493;-69
2022/08/21 10:11:08;;;;;;;4.47;1.58;;;26.60;39.30;;;;;;5022392;28;20420;-69
2022/08/21 10:13:49;;;;;;;3.60;1.42;;;26.60;39.90;;;;;;5014012;28;20524;-69
2022/08/21 10:16:28;;;;;;;3.60;1.70;;;26.70;40.10;;;;;;5016309;28;20463;-69
2022/08/21 10:19:10;;;;;;;3.33;1.80;;;26.80;38.70;;;;;;5018426;28;20431;-68
2022/08/21 10:21:43;;;;;;;2.92;1.40;;;26.70;38.30;;;;;;5018092;28;20451;-69
2022/08/21 10:24:15;;;;;;;3.80;1.70;;;26.50;39.50;;;;;;5018991;28;20857;-69
2022/08/21 10:26:57;;;;;;;4.00;1.42;;;26.50;40.10;;;;;;5017166;28;20936;-69
2022/08/21 10:29:43;;;;;;;4.13;1.50;;;26.90;39.00;;;;;;5023073;28;20483;-69
2022/08/21 10:32:23;;;;;;;3.00;1.27;;;27.40;38.10;;;;;;5009524;28;20518;-69
2022/08/21 10:35:02;;;;;;;3.38;1.60;;;27.40;38.00;;;;;;5015428;28;20438;-69
2022/08/21 10:37:40;;;;;;;3.30;1.60;;;27.30;37.30;;;;;;5013779;28;20419;-67
2022/08/21 10:40:16;;;;;;;4.15;1.80;;;27.30;37.40;;;;;;5015980;28;20437;-68
2022/08/21 10:42:52;;;;;;;4.35;1.48;;;27.60;36.80;;;;;;5014344;28;20881;-68
2022/08/21 10:45:30;;;;;;;4.40;1.90;;;27.60;37.90;;;;;;5017123;28;20955;-75
2022/08/21 10:48:05;;;;;;;3.90;1.55;;;27.80;37.50;;;;;;5017137;28;22379;-75
2022/08/21 10:50:40;;;;;;;2.60;1.27;;;28.10;36.60;;;;;;5021900;28;20562;-75
2022/08/21 10:53:21;;;;;;;3.90;1.50;;;27.90;35.30;;;;;;5015940;28;20473;-76
2022/08/21 10:55:55;;;;;;;3.70;1.60;;;28.00;36.90;;;;;;5014350;28;20435;-74
2022/08/21 10:58:27;;;;;;;2.97;1.30;;;28.20;35.00;;;;;;5016211;28;20441;-75
2022/08/21 11:00:59;;;;;;;3.13;1.40;;;28.10;35.40;;;;;;5018270;28;20481;-75
2022/08/21 11:03:33;;;;;;;3.50;1.50;;;28.20;36.00;;;;;;5018836;28;20449;-75
2022/08/21 11:06:06;;;;;;;4.32;1.80;;;28.40;34.90;;;;;;5016790;28;20435;-74
2022/08/21 11:08:39;;;;;;;2.55;1.40;;;28.50;34.80;;;;;;5014944;28;20517;-74
2022/08/21 11:11:13;;;;;;;3.80;1.70;;;28.20;34.40;;;;;;5021421;28;20449;-74
2022/08/21 11:13:43;;;;;;;3.38;1.40;;;28.10;34.70;;;;;;5014975;28;20420;-75
2022/08/21 11:16:16;;;;;;;2.67;1.55;;;28.10;36.60;;;;;;5021446;28;20872;-76
2022/08/21 11:18:49;;;;;;;2.83;1.20;;;28.20;35.60;;;;;;5022730;28;20439;-75
2022/08/21 11:21:29;;;;;;;3.30;1.40;;;28.40;35.30;;;;;;5022260;28;20423;-75
2022/08/21 11:24:04;;;;;;;3.60;1.40;;;28.80;34.80;;;;;;5019823;28;20924;-75
2022/08/21 11:26:39;;;;;;;2.95;1.10;;;29.10;33.50;;;;;;5014564;28;20738;-75
2022/08/21 11:29:14;;;;;;;2.17;1.40;;;29.20;32.90;;;;;;5021137;28;20947;-75
2022/08/21 11:31:57;;;;;;;3.08;1.40;;;29.50;33.10;;;;;;5017697;28;20513;-75
2022/08/21 11:34:41;;;;;;;2.72;1.30;;;29.70;33.40;;;;;;5022385;28;20415;-76
2022/08/21 11:37:15;;;;;;;4.68;1.40;;;29.60;31.00;;;;;;5022548;28;20475;-75
2022/08/21 11:39:53;;;;;;;3.22;1.10;;;29.50;31.70;;;;;;5023655;28;20733;-74
2022/08/21 11:42:28;;;;;;;3.00;1.40;;;29.60;32.00;;;;;;5023838;28;20428;-75
2022/08/21 11:45:11;;;;;;;2.90;1.17;;;29.60;31.60;;;;;;5017848;28;20424;-76
2022/08/21 11:47:50;;;;;;;2.30;1.00;;;29.80;32.70;;;;;;5024281;28;20853;-77
2022/08/21 11:50:18;;;;;;;2.55;1.20;;;30.10;32.50;;;;;;5014763;28;20416;-77
2022/08/21 11:52:53;;;;;;;2.23;1.00;;;30.40;30.60;;;;;;5027074;28;21029;-77
2022/08/21 11:55:27;;;;;;;3.15;1.45;;;30.50;31.00;;;;;;5019888;28;20453;-77
2022/08/21 11:57:59;;;;;;;2.75;1.20;;;30.70;31.50;;;;;;5018053;28;20469;-77
2022/08/21 12:00:30;;;;;;;2.30;1.20;;;30.70;30.10;;;;;;5024989;28;20449;-76
2022/08/21 12:03:06;;;;;;;2.95;1.50;;;30.50;30.50;;;;;;5020052;28;20430;-77
2022/08/21 12:05:36;;;;;;;2.38;1.10;;;30.50;31.00;;;;;;5018908;28;20783;-76
2022/08/21 12:08:11;;;;;;;2.10;1.00;;;30.70;31.70;;;;;;5017823;28;20459;-76
2022/08/21 12:10:42;;;;;;;2.25;1.05;;;30.90;29.90;;;;;;5016648;28;20416;-76
2022/08/21 12:13:13;;;;;;;3.10;1.20;;;31.10;30.20;;;;;;5022022;28;20426;-76
2022/08/21 12:15:40;;;;;;;3.35;1.20;;;31.20;30.00;;;;;;5016961;28;20473;-77
2022/08/21 12:18:22;;;;;;;2.20;1.10;;;30.80;30.00;;;;;;5051161;22;20496;-75
2022/08/21 12:21:00;;;;;;;3.53;1.20;;;30.70;30.80;;;;;;5026753;28;20774;-77
2022/08/21 12:23:31;;;;;;;2.10;1.13;;;30.50;29.80;;;;;;5034817;28;20500;-77
2022/08/21 12:26:19;;;;;;;2.88;1.10;;;30.10;30.40;;;;;;5020038;28;20668;-76
2022/08/21 12:28:46;;;;;;;1.95;0.95;;;30.10;30.00;;;;;;5022222;28;20417;-77
2022/08/21 12:31:23;;;;;;;2.20;1.10;;;30.20;31.50;;;;;;5034733;28;20423;-76
2022/08/21 12:33:56;;;;;;;3.25;1.10;;;30.50;30.80;;;;;;5021221;28;20444;-78
2022/08/21 12:36:26;;;;;;;2.22;1.20;;;30.80;29.80;;;;;;5022004;28;20411;-78
2022/08/21 12:38:57;;;;;;;2.37;1.30;;;31.20;30.00;;;;;;5021812;28;20825;-77
2022/08/21 12:41:30;;;;;;;1.90;1.00;;;31.60;29.80;;;;;;5038492;28;20441;-76
2022/08/21 12:44:01;;;;;;;1.90;1.10;;;31.70;28.50;;;;;;5036208;28;20471;-77
2022/08/21 12:46:35;;;;;;;3.00;0.90;;;31.60;29.20;;;;;;5023766;28;20454;-77
2022/08/21 12:49:08;;;;;;;3.13;1.10;;;31.50;28.50;;;;;;5026318;28;20423;-78
2022/08/21 12:51:49;;;;;;;2.10;1.10;;;31.30;29.50;;;;;;5029838;28;20446;-76
2022/08/21 12:54:25;;;;;;;1.80;0.95;;;31.20;29.40;;;;;;5021662;28;20425;-79
2022/08/21 12:57:02;;;;;;;2.90;1.20;;;31.30;29.60;;;;;;5030066;28;20414;-76
2022/08/21 12:59:29;;;;;;;2.08;1.38;;;31.30;29.50;;;;;;5028586;28;20431;-78